createdAt,value
2023-03-15T00:00:43.600Z,28.45
2023-03-15T00:01:43.627Z,28.96
2023-03-15T00:02:43.873Z,29.11
2023-03-15T00:03:43.793Z,29.97
2023-03-15T00:04:43.776Z,28.02
2023-03-15T00:05:43.839Z,29.96
2023-03-15T00:06:43.882Z,29.27
2023-03-15T00:07:42.951Z,26.37
2023-03-15T00:08:43.998Z,28.51
2023-03-15T00:09:44.058Z,30.81
2023-03-15T00:10:44.090Z,27.19
2023-03-15T00:11:44.162Z,29.25
2023-03-15T00:12:44.218Z,32.28
2023-03-15T00:13:44.274Z,31.03
2023-03-15T00:14:43.321Z,29.88
2023-03-15T00:15:44.422Z,32.00
2023-03-15T00:16:44.568Z,35.98
2023-03-15T00:17:44.514Z,36.11
2023-03-15T00:18:43.564Z,30.33
2023-03-15T00:19:43.619Z,31.14
2023-03-15T00:20:43.693Z,29.82
2023-03-15T00:21:44.763Z,30.70
2023-03-15T00:22:44.809Z,28.20
2023-03-15T00:23:44.881Z,26.43
2023-03-15T00:24:43.949Z,31.71
2023-03-15T00:25:44.991Z,28.25
2023-03-15T00:26:45.057Z,26.23
2023-03-15T00:27:45.124Z,29.19
2023-03-15T00:28:44.172Z,29.50
2023-03-15T00:29:45.210Z,29.47
2023-03-15T00:30:44.298Z,31.48
2023-03-15T00:31:45.344Z,27.12
2023-03-15T00:32:44.457Z,32.36
2023-03-15T00:33:44.434Z,32.65
2023-03-15T00:34:45.493Z,30.68
2023-03-15T00:35:45.719Z,27.11
2023-03-15T00:36:44.609Z,29.94
2023-03-15T00:37:44.677Z,29.70
2023-03-15T00:38:45.713Z,29.79
2023-03-15T00:39:45.755Z,29.07
2023-03-15T00:40:45.805Z,30.76
2023-03-15T00:41:44.851Z,31.04
2023-03-15T00:42:45.938Z,29.03
2023-03-15T00:43:45.979Z,31.41
2023-03-15T00:44:45.042Z,31.41
2023-03-15T00:45:46.097Z,29.31
2023-03-15T00:46:45.218Z,32.68
2023-03-15T00:47:46.285Z,31.05
2023-03-15T00:48:46.296Z,32.87
2023-03-15T00:49:46.358Z,25.00
2023-03-15T00:50:46.409Z,28.94
2023-03-15T00:51:46.487Z,29.13
2023-03-15T00:52:46.540Z,27.53
2023-03-15T00:53:45.587Z,29.90
2023-03-15T00:54:46.644Z,26.00
2023-03-15T00:55:46.687Z,28.18
2023-03-15T00:56:46.756Z,31.06
2023-03-15T00:57:45.819Z,29.49
2023-03-15T00:58:46.898Z,31.01
2023-03-15T00:59:46.944Z,30.33
2023-03-15T01:00:47.019Z,29.99
2023-03-15T01:01:47.157Z,25.72
2023-03-15T01:02:46.152Z,29.23
2023-03-15T01:03:46.216Z,28.70
2023-03-15T01:04:47.253Z,27.88
2023-03-15T01:05:46.311Z,29.32
2023-03-15T01:06:47.393Z,31.34
2023-03-15T01:07:47.450Z,32.01
2023-03-15T01:08:47.517Z,30.95
2023-03-15T01:09:48.602Z,26.87
2023-03-15T01:10:47.633Z,30.69
2023-03-15T01:11:47.690Z,31.24
2023-03-15T01:12:47.762Z,28.36
2023-03-15T01:13:47.841Z,31.19
2023-03-15T01:14:47.900Z,28.45
2023-03-15T01:15:48.029Z,26.87
2023-03-15T01:16:48.036Z,29.38
2023-03-15T01:17:48.091Z,26.62
2023-03-15T01:18:48.174Z,30.58
2023-03-15T01:19:48.234Z,29.15
2023-03-15T01:20:48.281Z,30.57
2023-03-15T01:21:48.329Z,27.71
2023-03-15T01:22:48.381Z,27.15
2023-03-15T01:23:48.465Z,32.46
2023-03-15T01:24:48.514Z,29.87
2023-03-15T01:25:48.561Z,28.64
2023-03-15T01:26:48.639Z,30.33
2023-03-15T01:27:47.736Z,26.27
2023-03-15T01:28:48.793Z,29.77
2023-03-15T01:29:48.833Z,27.57
2023-03-15T01:30:49.750Z,26.35
2023-03-15T01:31:49.066Z,26.70
2023-03-15T01:32:49.216Z,28.25
2023-03-15T01:33:48.087Z,27.46
2023-03-15T01:34:49.141Z,27.88
2023-03-15T01:35:49.298Z,29.88
2023-03-15T01:36:49.288Z,29.39
2023-03-15T01:37:49.369Z,28.81
2023-03-15T01:38:49.487Z,28.63
2023-03-15T01:39:49.460Z,27.25
2023-03-15T01:40:49.524Z,27.44
2023-03-15T01:41:49.585Z,28.85
2023-03-15T01:42:49.642Z,28.37
2023-03-15T01:43:48.699Z,31.71
2023-03-15T01:44:49.779Z,28.31
2023-03-15T01:45:49.853Z,28.25
2023-03-15T01:46:49.955Z,28.60
2023-03-15T01:47:49.960Z,28.21
2023-03-15T01:48:50.000Z,25.11
2023-03-15T01:49:50.054Z,28.86
2023-03-15T01:50:50.093Z,30.94
2023-03-15T01:51:50.166Z,29.94
2023-03-15T01:52:49.182Z,33.26
2023-03-15T01:53:50.239Z,29.45
2023-03-15T01:54:50.279Z,28.39
2023-03-15T01:55:50.320Z,27.43
2023-03-15T01:56:50.374Z,30.52
2023-03-15T01:57:50.407Z,27.81
2023-03-15T01:58:50.451Z,28.95
2023-03-15T01:59:49.495Z,26.25
2023-03-15T02:00:49.577Z,30.76
2023-03-15T02:01:49.674Z,30.09
2023-03-15T02:02:50.566Z,27.13
2023-03-15T02:03:49.630Z,31.91
2023-03-15T02:04:50.710Z,31.21
2023-03-15T02:05:50.773Z,27.35
2023-03-15T02:06:50.828Z,33.57
2023-03-15T02:07:50.919Z,28.67
2023-03-15T02:08:50.956Z,31.04
2023-03-15T02:09:50.999Z,31.13
2023-03-15T02:10:51.057Z,29.13
2023-03-15T02:11:50.148Z,26.71
2023-03-15T02:12:50.202Z,25.49
2023-03-15T02:13:51.255Z,25.71
2023-03-15T02:14:51.309Z,27.36
2023-03-15T02:15:51.362Z,28.38
2023-03-15T02:16:51.517Z,30.23
2023-03-15T02:17:51.480Z,27.27
2023-03-15T02:18:51.531Z,27.45
2023-03-15T02:19:51.561Z,28.49
2023-03-15T02:20:51.594Z,26.50
2023-03-15T02:21:50.589Z,29.97
2023-03-15T02:22:51.637Z,30.84
2023-03-15T02:23:51.722Z,31.87
2023-03-15T02:24:50.774Z,30.93
2023-03-15T02:25:51.820Z,30.80
2023-03-15T02:26:52.046Z,29.54
2023-03-15T02:27:50.942Z,28.52
2023-03-15T02:28:52.006Z,32.05
2023-03-15T02:29:52.068Z,29.15
2023-03-15T02:30:52.112Z,28.89
2023-03-15T02:31:52.246Z,29.14
2023-03-15T02:32:51.311Z,29.10
2023-03-15T02:33:52.297Z,28.18
2023-03-15T02:34:52.344Z,31.18
2023-03-15T02:35:52.485Z,29.83
2023-03-15T02:36:52.501Z,31.25
2023-03-15T02:37:52.569Z,31.26
2023-03-15T02:38:52.637Z,25.99
2023-03-15T02:39:52.696Z,29.86
2023-03-15T02:40:52.756Z,29.49
2023-03-15T02:41:52.772Z,27.43
2023-03-15T02:42:51.830Z,26.22
2023-03-15T02:43:52.859Z,30.08
2023-03-15T02:44:51.896Z,31.99
2023-03-15T02:45:53.055Z,32.42
2023-03-15T02:46:52.035Z,30.44
2023-03-15T02:47:52.035Z,26.28
2023-03-15T02:48:53.074Z,25.21
2023-03-15T02:49:53.117Z,29.13
2023-03-15T02:50:53.188Z,29.33
2023-03-15T02:51:53.748Z,25.62
2023-03-15T02:52:53.296Z,28.61
2023-03-15T02:53:53.355Z,26.93
2023-03-15T02:54:53.409Z,28.35
2023-03-15T02:55:53.532Z,32.08
2023-03-15T02:56:53.538Z,27.74
2023-03-15T02:57:53.628Z,28.69
2023-03-15T02:58:52.671Z,27.65
2023-03-15T02:59:53.723Z,28.94
2023-03-15T03:00:54.133Z,27.72
2023-03-15T03:01:52.854Z,25.63
2023-03-15T03:02:53.912Z,27.14
2023-03-15T03:03:53.959Z,27.45
2023-03-15T03:04:54.003Z,25.46
2023-03-15T03:05:54.068Z,29.24
2023-03-15T03:06:54.095Z,25.87
2023-03-15T03:07:54.159Z,29.67
2023-03-15T03:08:54.207Z,31.14
2023-03-15T03:09:54.274Z,30.46
2023-03-15T03:10:54.320Z,30.56
2023-03-15T03:11:54.402Z,26.06
2023-03-15T03:12:53.492Z,25.75
2023-03-15T03:13:54.447Z,30.90
2023-03-15T03:14:54.513Z,29.82
2023-03-15T03:15:54.570Z,32.87
2023-03-15T03:16:54.602Z,27.06
2023-03-15T03:17:53.684Z,29.97
2023-03-15T03:18:54.681Z,25.61
2023-03-15T03:19:54.725Z,30.55
2023-03-15T03:20:54.790Z,28.79
2023-03-15T03:21:54.809Z,31.63
2023-03-15T03:22:54.862Z,29.10
2023-03-15T03:23:54.892Z,30.76
2023-03-15T03:24:54.931Z,28.80
2023-03-15T03:25:54.991Z,31.34
2023-03-15T03:26:54.008Z,32.61
2023-03-15T03:27:55.058Z,28.62
2023-03-15T03:28:54.087Z,32.03
2023-03-15T03:29:55.124Z,30.63
2023-03-15T03:30:54.239Z,28.17
2023-03-15T03:31:55.212Z,25.45
2023-03-15T03:32:54.319Z,30.10
2023-03-15T03:33:54.274Z,27.09
2023-03-15T03:34:55.305Z,28.44
2023-03-15T03:35:54.517Z,30.31
2023-03-15T03:36:55.377Z,32.47
2023-03-15T03:37:55.397Z,26.35
2023-03-15T03:38:55.443Z,29.39
2023-03-15T03:39:55.472Z,30.96
2023-03-15T03:40:55.493Z,28.23
2023-03-15T03:41:55.754Z,27.20
2023-03-15T03:42:55.528Z,28.46
2023-03-15T03:43:55.579Z,28.88
2023-03-15T03:44:55.596Z,30.92
2023-03-15T03:45:55.622Z,27.38
2023-03-15T03:46:54.613Z,30.70
2023-03-15T03:47:55.640Z,27.67
2023-03-15T03:48:55.670Z,28.09
2023-03-15T03:49:55.681Z,26.17
2023-03-15T03:50:54.688Z,32.70
2023-03-15T03:51:55.728Z,28.71
2023-03-15T03:52:55.750Z,27.39
2023-03-15T03:53:54.757Z,29.72
2023-03-15T03:54:55.805Z,32.34
2023-03-15T03:55:55.847Z,28.26
2023-03-15T03:56:55.829Z,27.94
2023-03-15T03:57:55.834Z,30.54
2023-03-15T03:58:55.843Z,28.86
2023-03-15T03:59:55.880Z,28.08
2023-03-15T04:00:55.881Z,30.83
2023-03-15T04:01:55.952Z,29.06
2023-03-15T04:02:55.015Z,30.06
2023-03-15T04:03:54.927Z,32.43
2023-03-15T04:04:56.053Z,25.28
2023-03-15T04:05:55.962Z,31.97
2023-03-15T04:06:54.982Z,30.49
2023-03-15T04:07:56.010Z,29.29
2023-03-15T04:08:56.019Z,30.98
2023-03-15T04:09:56.049Z,34.13
2023-03-15T04:10:56.058Z,35.40
2023-03-15T04:11:56.072Z,29.47
2023-03-15T04:12:55.104Z,31.53
2023-03-15T04:13:56.117Z,31.26
2023-03-15T04:14:55.117Z,28.99
2023-03-15T04:15:55.309Z,29.56
2023-03-15T04:16:55.147Z,33.00
2023-03-15T04:17:55.172Z,34.77
2023-03-15T04:18:55.168Z,30.17
2023-03-15T04:19:56.209Z,28.98
2023-03-15T04:20:56.203Z,31.28
2023-03-15T04:21:55.249Z,27.17
2023-03-15T04:22:56.278Z,30.29
2023-03-15T04:23:56.281Z,33.57
2023-03-15T04:24:56.322Z,27.77
2023-03-15T04:25:56.336Z,27.68
2023-03-15T04:26:56.371Z,26.80
2023-03-15T04:27:56.387Z,31.88
2023-03-15T04:28:55.406Z,33.65
2023-03-15T04:29:56.432Z,30.67
2023-03-15T04:30:56.579Z,31.13
2023-03-15T04:31:56.466Z,28.07
2023-03-15T04:32:56.841Z,31.32
2023-03-15T04:33:56.529Z,31.17
2023-03-15T04:34:55.511Z,30.75
2023-03-15T04:35:55.625Z,25.00
2023-03-15T04:36:55.565Z,30.00
2023-03-15T04:37:56.585Z,30.30
2023-03-15T04:38:56.607Z,30.20
2023-03-15T04:39:56.614Z,31.06
2023-03-15T04:40:55.629Z,36.05
2023-03-15T04:41:55.648Z,26.82
2023-03-15T04:42:55.696Z,27.90
2023-03-15T04:43:56.692Z,32.78
2023-03-15T04:44:56.703Z,30.34
2023-03-15T04:45:56.730Z,32.17
2023-03-15T04:46:55.853Z,26.35
2023-03-15T04:47:56.778Z,28.00
2023-03-15T04:48:56.781Z,27.28
2023-03-15T04:49:55.805Z,29.38
2023-03-15T04:50:56.822Z,25.00
2023-03-15T04:51:56.840Z,32.67
2023-03-15T04:52:56.857Z,31.86
2023-03-15T04:53:56.885Z,32.25
2023-03-15T04:54:56.911Z,29.11
2023-03-15T04:55:56.923Z,30.62
2023-03-15T04:56:56.941Z,27.77
2023-03-15T04:57:55.944Z,27.77
2023-03-15T04:58:56.976Z,32.68
2023-03-15T04:59:56.987Z,30.60
2023-03-15T05:00:57.109Z,27.00
2023-03-15T05:01:57.148Z,31.17
2023-03-15T05:02:56.094Z,33.97
2023-03-15T05:03:57.050Z,30.07
2023-03-15T05:04:57.050Z,32.42
2023-03-15T05:05:57.069Z,34.96
2023-03-15T05:06:57.086Z,33.32
2023-03-15T05:07:57.129Z,28.72
2023-03-15T05:08:57.135Z,26.91
2023-03-15T05:09:57.141Z,26.55
2023-03-15T05:10:57.147Z,31.46
2023-03-15T05:11:57.161Z,25.25
2023-03-15T05:12:57.196Z,32.47
2023-03-15T05:13:57.188Z,34.41
2023-03-15T05:14:57.208Z,31.09
2023-03-15T05:15:57.285Z,30.02
2023-03-15T05:16:56.232Z,32.29
2023-03-15T05:17:57.303Z,32.02
2023-03-15T05:18:57.306Z,29.75
2023-03-15T05:19:57.275Z,27.47
2023-03-15T05:20:57.297Z,29.13
2023-03-15T05:21:57.323Z,29.60
2023-03-15T05:22:57.422Z,30.43
2023-03-15T05:23:57.382Z,29.10
2023-03-15T05:24:57.379Z,32.86
2023-03-15T05:25:57.395Z,32.14
2023-03-15T05:26:57.450Z,32.20
2023-03-15T05:27:57.450Z,31.64
2023-03-15T05:28:57.467Z,28.94
2023-03-15T05:29:56.488Z,31.50
2023-03-15T05:30:57.230Z,32.26
2023-03-15T05:31:57.645Z,32.53
2023-03-15T05:32:56.615Z,29.23
2023-03-15T05:33:57.576Z,31.42
2023-03-15T05:34:57.626Z,31.11
2023-03-15T05:35:56.752Z,32.95
2023-03-15T05:36:57.668Z,30.64
2023-03-15T05:37:57.707Z,31.20
2023-03-15T05:38:57.729Z,29.71
2023-03-15T05:39:57.751Z,30.29
2023-03-15T05:40:56.779Z,29.78
2023-03-15T05:41:57.796Z,29.50
2023-03-15T05:42:57.816Z,29.37
2023-03-15T05:43:57.864Z,29.27
2023-03-15T05:44:57.860Z,29.98
2023-03-15T05:45:56.955Z,26.98
2023-03-15T05:46:57.927Z,28.12
2023-03-15T05:47:56.959Z,28.60
2023-03-15T05:48:56.981Z,27.22
2023-03-15T05:49:58.009Z,26.68
2023-03-15T05:50:58.080Z,25.02
2023-03-15T05:51:58.074Z,26.01
2023-03-15T05:52:58.102Z,25.00
2023-03-15T05:53:58.125Z,29.71
2023-03-15T05:54:58.137Z,29.81
2023-03-15T05:55:57.158Z,28.30
2023-03-15T05:56:58.184Z,28.94
2023-03-15T05:57:58.207Z,29.74
2023-03-15T05:58:58.241Z,28.83
2023-03-15T05:59:58.269Z,31.12
2023-03-15T06:00:58.275Z,32.51
2023-03-15T06:01:58.300Z,30.97
2023-03-15T06:02:58.394Z,31.11
2023-03-15T06:03:58.385Z,32.39
2023-03-15T06:04:58.357Z,28.24
2023-03-15T06:05:58.376Z,29.14
2023-03-15T06:06:58.428Z,33.23
2023-03-15T06:07:58.417Z,31.79
2023-03-15T06:08:58.456Z,32.74
2023-03-15T06:09:58.447Z,35.11
2023-03-15T06:10:58.468Z,33.94
2023-03-15T06:11:58.493Z,31.08
2023-03-15T06:12:58.507Z,29.38
2023-03-15T06:13:57.536Z,34.30
2023-03-15T06:14:58.539Z,32.10
2023-03-15T06:15:58.583Z,33.47
2023-03-15T06:16:58.724Z,31.75
2023-03-15T06:17:57.626Z,30.60
2023-03-15T06:18:58.621Z,30.03
2023-03-15T06:19:58.625Z,32.23
2023-03-15T06:20:57.662Z,32.77
2023-03-15T06:21:58.686Z,30.77
2023-03-15T06:22:58.739Z,33.15
2023-03-15T06:23:57.716Z,32.91
2023-03-15T06:24:58.766Z,32.98
2023-03-15T06:25:58.739Z,32.05
2023-03-15T06:26:58.774Z,29.15
2023-03-15T06:27:57.778Z,27.96
2023-03-15T06:28:58.790Z,30.36
2023-03-15T06:29:58.796Z,34.12
2023-03-15T06:30:58.861Z,34.35
2023-03-15T06:31:58.811Z,34.00
2023-03-15T06:32:58.898Z,30.71
2023-03-15T06:33:57.823Z,38.42
2023-03-15T06:34:58.832Z,44.75
2023-03-15T06:35:58.906Z,45.30
2023-03-15T06:36:58.857Z,50.98
2023-03-15T06:37:58.862Z,47.45
2023-03-15T06:38:58.919Z,43.39
2023-03-15T06:39:58.865Z,42.68
2023-03-15T06:40:58.885Z,44.14
2023-03-15T06:41:58.893Z,57.41
2023-03-15T06:42:58.906Z,59.12
2023-03-15T06:43:58.911Z,60.66
2023-03-15T06:44:58.917Z,50.00
2023-03-15T06:45:58.989Z,48.45
2023-03-15T06:46:58.935Z,69.60
2023-03-15T06:47:58.937Z,67.14
2023-03-15T06:48:59.016Z,57.62
2023-03-15T06:49:59.814Z,65.18
2023-03-15T06:50:58.950Z,65.48
2023-03-15T06:51:58.949Z,62.97
2023-03-15T06:52:58.949Z,67.05
2023-03-15T06:53:58.949Z,65.31
2023-03-15T06:54:59.026Z,66.11
2023-03-15T06:55:58.950Z,52.32
2023-03-15T06:56:58.960Z,6.10
2023-03-15T06:57:59.004Z,0.00
2023-03-15T06:58:59.003Z,1.71
2023-03-15T06:59:59.073Z,23.57
2023-03-15T07:00:59.105Z,72.19
2023-03-15T07:01:58.283Z,108.64
2023-03-15T07:02:59.240Z,108.25
2023-03-15T07:03:59.262Z,116.30
2023-03-15T07:04:59.376Z,122.38
2023-03-15T07:05:59.347Z,140.94
2023-03-15T07:06:58.379Z,150.39
2023-03-15T07:07:59.457Z,155.88
2023-03-15T07:08:58.450Z,158.79
2023-03-15T07:09:59.472Z,166.35
2023-03-15T07:10:59.514Z,177.31
2023-03-15T07:11:59.501Z,174.12
2023-03-15T07:12:58.765Z,194.87
2023-03-15T07:13:59.607Z,199.24
2023-03-15T07:14:59.600Z,197.95
2023-03-15T07:15:59.931Z,185.37
2023-03-15T07:16:59.650Z,173.03
2023-03-15T07:17:59.716Z,142.40
2023-03-15T07:18:59.944Z,124.55
2023-03-15T07:19:59.857Z,113.22
2023-03-15T07:20:59.969Z,112.37
2023-03-15T07:21:59.955Z,136.02
2023-03-15T07:22:59.968Z,159.62
2023-03-15T07:24:00.001Z,141.69
2023-03-15T07:25:00.078Z,144.51
2023-03-15T07:25:59.122Z,131.41
2023-03-15T07:27:00.269Z,131.18
2023-03-15T07:28:00.257Z,130.03
2023-03-15T07:29:00.317Z,102.45
2023-03-15T07:29:59.575Z,123.62
2023-03-15T07:31:00.453Z,115.28
2023-03-15T07:32:00.813Z,117.43
2023-03-15T07:33:00.709Z,113.37
2023-03-15T07:34:00.826Z,110.94
2023-03-15T07:35:00.712Z,105.43
2023-03-15T07:36:00.819Z,99.93
2023-03-15T07:37:00.798Z,119.19
2023-03-15T07:38:00.875Z,99.05
2023-03-15T07:39:00.920Z,113.77
2023-03-15T07:40:00.963Z,106.96
2023-03-15T07:41:01.020Z,106.73
2023-03-15T07:42:01.048Z,117.47
2023-03-15T07:43:01.139Z,130.31
2023-03-15T07:44:01.124Z,141.25
2023-03-15T07:45:01.192Z,144.46
2023-03-15T07:46:01.215Z,154.29
2023-03-15T07:47:01.370Z,159.61
2023-03-15T07:48:01.277Z,132.68
2023-03-15T07:49:01.266Z,145.22
2023-03-15T07:50:00.626Z,137.36
2023-03-15T07:51:01.310Z,135.17
2023-03-15T07:52:01.373Z,126.02
2023-03-15T07:53:01.366Z,123.10
2023-03-15T07:54:00.870Z,93.07
2023-03-15T07:55:01.421Z,72.48
2023-03-15T07:56:00.493Z,42.98
2023-03-15T07:57:01.493Z,33.25
2023-03-15T07:58:00.520Z,40.21
2023-03-15T07:59:01.958Z,77.65
2023-03-15T08:00:00.600Z,102.81
2023-03-15T08:01:01.628Z,113.48
2023-03-15T08:02:03.451Z,119.17
2023-03-15T08:03:01.776Z,122.29
2023-03-15T08:04:01.705Z,126.29
2023-03-15T08:05:01.670Z,131.89
2023-03-15T08:06:01.678Z,141.40
2023-03-15T08:07:01.665Z,139.14
2023-03-15T08:08:01.625Z,136.61
2023-03-15T08:09:00.628Z,139.33
2023-03-15T08:10:01.702Z,136.96
2023-03-15T08:11:01.726Z,140.64
2023-03-15T08:12:01.897Z,142.96
2023-03-15T08:13:01.819Z,148.54
2023-03-15T08:14:01.678Z,155.31
2023-03-15T08:15:01.721Z,156.50
2023-03-15T08:16:01.681Z,158.04
2023-03-15T08:17:01.569Z,167.42
2023-03-15T08:18:01.607Z,164.55
2023-03-15T08:19:01.628Z,172.38
2023-03-15T08:20:00.536Z,166.66
2023-03-15T08:21:01.777Z,176.21
2023-03-15T08:22:01.602Z,193.57
2023-03-15T08:23:00.542Z,187.00
2023-03-15T08:24:00.536Z,186.86
2023-03-15T08:25:01.537Z,189.59
2023-03-15T08:26:01.632Z,184.68
2023-03-15T08:27:01.514Z,188.26
2023-03-15T08:28:01.516Z,188.46
2023-03-15T08:29:01.547Z,187.49
2023-03-15T08:30:01.535Z,190.60
2023-03-15T08:31:01.507Z,188.80
2023-03-15T08:32:01.544Z,193.59
2023-03-15T08:33:01.509Z,192.62
2023-03-15T08:34:01.465Z,196.84
2023-03-15T08:35:00.457Z,199.97
2023-03-15T08:36:01.552Z,202.88
2023-03-15T08:37:00.451Z,205.84
2023-03-15T08:38:02.347Z,207.61
2023-03-15T08:39:01.506Z,205.66
2023-03-15T08:40:01.579Z,204.02
2023-03-15T08:41:01.606Z,205.29
2023-03-15T08:42:01.616Z,210.15
2023-03-15T08:43:01.616Z,211.61
2023-03-15T08:44:01.647Z,209.98
2023-03-15T08:45:00.662Z,212.74
2023-03-15T08:46:01.813Z,214.39
2023-03-15T08:47:00.831Z,213.47
2023-03-15T08:48:01.751Z,215.06
2023-03-15T08:49:00.791Z,214.87
2023-03-15T08:50:02.007Z,222.43
2023-03-15T08:51:00.799Z,219.99
2023-03-15T08:52:01.849Z,221.01
2023-03-15T08:53:00.860Z,217.47
2023-03-15T08:54:01.867Z,219.07
2023-03-15T08:55:00.921Z,220.30
2023-03-15T08:56:01.913Z,220.03
2023-03-15T08:57:02.012Z,224.08
2023-03-15T08:58:03.441Z,219.28
2023-03-15T08:59:01.982Z,224.43
2023-03-15T09:00:02.032Z,223.84
2023-03-15T09:01:00.970Z,226.35
2023-03-15T09:02:01.124Z,225.48
2023-03-15T09:03:01.969Z,225.26
2023-03-15T09:04:00.953Z,223.42
2023-03-15T09:05:01.988Z,224.91
2023-03-15T09:06:01.952Z,226.75
2023-03-15T09:07:01.931Z,225.78
2023-03-15T09:08:01.963Z,224.35
2023-03-15T09:09:01.909Z,223.63
2023-03-15T09:10:04.149Z,227.01
2023-03-15T09:11:01.989Z,227.13
2023-03-15T09:12:01.925Z,227.11
2023-03-15T09:13:01.887Z,224.65
2023-03-15T09:14:01.907Z,227.11
2023-03-15T09:15:01.866Z,223.26
2023-03-15T09:16:02.854Z,225.43
2023-03-15T09:17:00.909Z,220.33
2023-03-15T09:18:01.382Z,221.45
2023-03-15T09:19:00.869Z,221.80
2023-03-15T09:20:01.865Z,222.16
2023-03-15T09:21:01.846Z,222.90
2023-03-15T09:22:16.056Z,222.17
2023-03-15T09:23:01.835Z,222.40
2023-03-15T09:24:01.824Z,222.84
2023-03-15T09:25:01.810Z,223.08
2023-03-15T09:26:01.824Z,222.20
2023-03-15T09:27:01.803Z,223.64
2023-03-15T09:28:01.798Z,219.38
2023-03-15T09:29:01.797Z,221.32
2023-03-15T09:30:00.838Z,221.46
2023-03-15T09:31:00.805Z,221.99
2023-03-15T09:32:01.756Z,219.28
2023-03-15T09:33:01.831Z,221.00
2023-03-15T09:34:01.749Z,220.49
2023-03-15T09:35:01.794Z,219.96
2023-03-15T09:36:01.788Z,220.44
2023-03-15T09:37:00.720Z,222.70
2023-03-15T09:38:01.724Z,222.51
2023-03-15T09:39:01.701Z,221.44
2023-03-15T09:40:01.762Z,218.02
2023-03-15T09:41:01.725Z,219.17
2023-03-15T09:42:01.732Z,210.04
2023-03-15T09:43:01.724Z,143.49
2023-03-15T09:44:01.692Z,0.00
2023-03-15T09:45:01.883Z,0.00
2023-03-15T09:46:01.724Z,0.00
2023-03-15T09:47:01.646Z,0.00
2023-03-15T09:48:01.730Z,0.00
2023-03-15T09:49:00.642Z,0.00
2023-03-15T09:50:01.666Z,0.00
2023-03-15T09:51:01.660Z,0.00
2023-03-15T09:52:01.615Z,10.34
2023-03-15T09:53:01.629Z,8.64
2023-03-15T09:54:01.628Z,50.56
2023-03-15T09:55:00.986Z,48.56
2023-03-15T09:56:01.600Z,35.36
2023-03-15T09:57:01.624Z,25.00
2023-03-15T09:58:00.660Z,37.45
2023-03-15T09:59:03.409Z,15.51
2023-03-15T10:00:01.944Z,31.76
2023-03-15T10:01:01.999Z,17.75
2023-03-15T10:02:01.173Z,42.51
2023-03-15T10:03:02.101Z,53.93
2023-03-15T10:04:01.168Z,40.09
2023-03-15T10:05:02.239Z,28.68
2023-03-15T10:06:01.268Z,51.52
2023-03-15T10:07:01.357Z,31.38
2023-03-15T10:08:02.368Z,10.13
2023-03-15T10:09:02.445Z,43.02
2023-03-15T10:10:01.524Z,31.98
2023-03-15T10:11:01.543Z,68.34
2023-03-15T10:12:02.582Z,72.81
2023-03-15T10:13:02.701Z,77.04
2023-03-15T10:14:02.703Z,45.47
2023-03-15T10:15:02.701Z,80.28
2023-03-15T10:16:02.864Z,115.25
2023-03-15T10:17:02.764Z,73.06
2023-03-15T10:18:02.811Z,92.99
2023-03-15T10:19:02.809Z,88.58
2023-03-15T10:20:01.873Z,71.29
2023-03-15T10:21:02.924Z,91.29
2023-03-15T10:22:02.923Z,108.10
2023-03-15T10:23:02.943Z,106.08
2023-03-15T10:24:01.961Z,69.47
2023-03-15T10:25:02.980Z,66.60
2023-03-15T10:26:02.993Z,54.36
2023-03-15T10:27:03.006Z,36.02
2023-03-15T10:28:03.047Z,43.34
2023-03-15T10:29:03.073Z,94.54
2023-03-15T10:30:03.088Z,90.41
2023-03-15T10:31:03.191Z,32.97
2023-03-15T10:32:03.216Z,96.99
2023-03-15T10:33:03.298Z,43.22
2023-03-15T10:34:03.204Z,51.07
2023-03-15T10:35:03.220Z,63.23
2023-03-15T10:36:11.015Z,50.56
2023-03-15T10:37:03.503Z,30.03
2023-03-15T10:38:03.348Z,50.42
2023-03-15T10:39:03.305Z,57.76
2023-03-15T10:40:03.233Z,92.45
2023-03-15T10:41:03.256Z,75.53
2023-03-15T10:42:03.220Z,84.31
2023-03-15T10:43:02.242Z,40.47
2023-03-15T10:44:03.462Z,30.74
2023-03-15T10:45:03.238Z,0.00
2023-03-15T10:46:02.246Z,55.53
2023-03-15T10:47:16.024Z,132.54
2023-03-15T10:48:03.198Z,136.04
2023-03-15T10:49:03.168Z,153.30
2023-03-15T10:50:03.163Z,169.08
2023-03-15T10:51:03.401Z,214.75
2023-03-15T10:52:03.153Z,315.86
2023-03-15T10:53:03.146Z,249.84
2023-03-15T10:54:03.206Z,230.06
2023-03-15T10:55:04.589Z,176.80
2023-03-15T10:56:02.452Z,188.98
2023-03-15T10:57:03.627Z,170.98
2023-03-15T10:58:02.795Z,214.22
2023-03-15T10:59:12.606Z,206.79
2023-03-15T11:00:03.658Z,148.00
2023-03-15T11:01:03.618Z,157.37
2023-03-15T11:02:03.716Z,118.91
2023-03-15T11:03:03.558Z,144.29
2023-03-15T11:05:03.508Z,208.38
2023-03-15T11:06:02.589Z,250.77
2023-03-15T11:07:02.502Z,262.80
2023-03-15T11:08:03.532Z,248.93
2023-03-15T11:09:02.513Z,246.40
2023-03-15T11:10:03.616Z,255.51
2023-03-15T11:11:03.490Z,248.45
2023-03-15T11:12:03.515Z,215.01
2023-03-15T11:13:03.466Z,249.05
2023-03-15T11:14:02.444Z,230.73
2023-03-15T11:15:02.547Z,251.15
2023-03-15T11:16:03.516Z,254.57
2023-03-15T11:17:03.442Z,250.44
2023-03-15T11:18:02.449Z,246.17
2023-03-15T11:19:03.510Z,250.00
2023-03-15T11:20:03.483Z,249.48
2023-03-15T11:21:03.419Z,248.65
2023-03-15T11:22:03.450Z,239.63
2023-03-15T11:23:03.418Z,242.66
2023-03-15T11:24:02.443Z,245.72
2023-03-15T11:25:03.590Z,250.00
2023-03-15T11:26:03.376Z,241.08
2023-03-15T11:27:02.410Z,232.58
2023-03-15T11:28:03.384Z,236.83
2023-03-15T11:29:03.368Z,241.70
2023-03-15T11:30:03.374Z,236.32
2023-03-15T11:31:03.433Z,243.85
2023-03-15T11:32:03.386Z,235.70
2023-03-15T11:33:03.490Z,222.79
2023-03-15T11:34:03.476Z,227.81
2023-03-15T11:35:03.501Z,239.23
2023-03-15T11:36:03.696Z,244.09
2023-03-15T11:37:08.480Z,239.25
2023-03-15T11:38:14.570Z,239.45
2023-03-15T11:39:03.629Z,239.92
2023-03-15T11:40:11.578Z,239.72
2023-03-15T11:41:03.574Z,223.78
2023-03-15T11:42:02.560Z,194.43
2023-03-15T11:43:03.617Z,208.29
2023-03-15T11:44:03.562Z,212.24
2023-03-15T11:46:04.220Z,217.26
2023-03-15T11:47:03.520Z,232.87
2023-03-15T11:48:03.515Z,243.84
2023-03-15T11:49:03.517Z,247.70
2023-03-15T11:50:03.497Z,249.55
2023-03-15T11:51:03.525Z,249.80
2023-03-15T11:52:03.512Z,248.59
2023-03-15T11:53:03.522Z,250.04
2023-03-15T11:54:03.500Z,250.00
2023-03-15T11:56:03.459Z,248.97
2023-03-15T11:57:03.478Z,250.00
2023-03-15T11:58:03.487Z,248.38
2023-03-15T11:59:03.469Z,248.84
2023-03-15T12:00:03.491Z,250.00
2023-03-15T12:01:03.460Z,247.07
2023-03-15T12:02:03.507Z,249.80
2023-03-15T12:03:03.441Z,249.58
2023-03-15T12:04:03.509Z,248.30
2023-03-15T12:05:15.874Z,248.07
2023-03-15T12:06:03.486Z,248.13
2023-03-15T12:07:03.573Z,247.50
2023-03-15T12:08:03.621Z,247.36
2023-03-15T12:09:03.407Z,248.35
2023-03-15T12:10:03.410Z,249.47
2023-03-15T12:11:03.625Z,249.66
2023-03-15T12:12:03.365Z,248.87
2023-03-15T12:13:03.358Z,249.39
2023-03-15T12:14:03.574Z,250.00
2023-03-15T12:15:03.469Z,245.64
2023-03-15T12:16:03.361Z,245.28
2023-03-15T12:17:02.521Z,245.84
2023-03-15T12:19:03.369Z,246.85
2023-03-15T12:21:03.379Z,246.08
2023-03-15T12:22:03.297Z,248.15
2023-03-15T12:23:03.310Z,247.39
2023-03-15T12:24:03.300Z,247.97
2023-03-15T12:25:03.270Z,249.33
2023-03-15T12:26:03.298Z,248.75
2023-03-15T12:27:03.400Z,249.57
2023-03-15T12:28:03.520Z,248.23
2023-03-15T12:29:02.281Z,246.56
2023-03-15T12:30:03.304Z,248.25
2023-03-15T12:31:03.692Z,247.65
2023-03-15T12:32:03.265Z,248.89
2023-03-15T12:33:03.337Z,249.41
2023-03-15T12:34:03.249Z,247.61
2023-03-15T12:35:03.234Z,247.59
2023-03-15T12:36:02.306Z,249.88
2023-03-15T12:37:02.214Z,247.74
2023-03-15T12:38:02.197Z,225.94
2023-03-15T12:39:03.251Z,214.21
2023-03-15T12:40:02.213Z,227.69
2023-03-15T12:41:03.304Z,226.71
2023-03-15T12:42:03.322Z,225.03
2023-03-15T12:43:03.353Z,224.41
2023-03-15T12:44:03.431Z,222.14
2023-03-15T12:45:03.492Z,218.87
2023-03-15T12:46:03.549Z,213.71
2023-03-15T12:47:03.611Z,211.97
2023-03-15T12:48:02.625Z,210.40
2023-03-15T12:49:02.667Z,212.08
2023-03-15T12:50:03.737Z,214.79